Flight Track Log - Related Links

Times and Time Zones

All times are in EDT time to prevent confusion due to time zone crossing. See the LBQ792 flight status page for this flight to view local times or setup timezone preferences in your user account.

Time Position Orientation Groundspeed Altitude Reporting Facility
EDT Latitude Longitude Course Direction KTS MPH feet Rate Location/Type
Sat 12:45:09 AM 40.2717 -79.9408 169° South 155 178 4,700  Level Cleveland Center
Sat 12:46:09 AM 40.2258 -79.9333 173° South 160 184 6,300 1,550 Climbing Cleveland Center
Sat 12:47:09 AM 40.1800 -79.9281 175° South 165 190 7,800 1,500 Climbing Cleveland Center
Sat 12:48:09 AM 40.1278 -79.9233 176° South 171 197 9,300 1,450 Climbing Cleveland Center
Sat 12:49:00 AM 39.9782 -79.8833 180° South  Level FlightAware Approximate
Sat 12:49:09 AM 40.0797 -79.9019 161° South 182 209 10,700  Level Cleveland Center
Sat 12:50:09 AM 40.0503 -79.8453 124° Southeast 172 198 12,100 1,450 Climbing Cleveland Center
Sat 12:51:09 AM 40.0247 -79.7861 119° Southeast 178 205 13,600 1,350 Climbing Cleveland Center
Sat 12:52:09 AM 39.9994 -79.7239 118° Southeast 183 211 14,800 700 Climbing Cleveland Center
Sat 12:53:09 AM 39.9694 -79.6511 118° Southeast 208 239 15,000 100 Climbing Cleveland Center
Sat 12:54:09 AM 39.9333 -79.5678 119° Southeast 239 275 15,000  Level Cleveland Center
Sat 12:55:09 AM 39.8972 -79.4844 119° Southeast 256 295 15,000  Level Cleveland Center
Sat 12:56:09 AM 39.8608 -79.3958 118° Southeast 262 302 15,000  Level Cleveland Center
Sat 12:57:09 AM 39.8244 -79.3100 119° Southeast 262 302 15,000  Level Cleveland Center
Sat 12:58:18 AM 39.7861 -79.2233 120° Southeast 272 313 15,000  Level Washington Center
Sat 12:59:18 AM 39.7469 -79.1378 121° Southeast 272 313 15,000  Level Washington Center
Sat 01:00:16 AM 39.7119 -79.0525 118° Southeast 272 313 15,000  Level Washington Center
Sat 01:01:16 AM 39.6728 -78.9669 121° Southeast 272 313 15,000  Level Washington Center
Sat 01:02:16 AM 39.6256 -78.8650 121° Southeast 291 335 15,000  Level Washington Center
Sat 01:03:18 AM 39.5842 -78.7797 122° Southeast 285 328 15,000 -248 Level Washington Center
Sat 01:04:17 AM 39.5444 -78.6944 121° Southeast 285 328 14,500 -706 Descending Washington Center
Sat 01:05:17 AM 39.5069 -78.6122 121° Southeast 285 328 13,600 -908 Descending Washington Center
Sat 01:06:16 AM 39.4614 -78.5189 122° Southeast 290 334 12,700 -942 Descending Washington Center
Sat 01:07:18 AM 39.4197 -78.4311 122° Southeast 290 334 11,700 -1,000 Descending Washington Center
Sat 01:08:16 AM 39.3758 -78.3436 123° Southeast 285 328 10,700 -1,000 Descending Washington Center
Sat 01:09:18 AM 39.3403 -78.2589 118° Southeast 280 322 9,700 -885 Descending Washington Center
Sat 01:10:18 AM 39.3025 -78.1744 120° Southeast 280 322 8,900 -403 Descending Washington Center
Sat 01:11:17 AM 39.2603 -78.1033 127° Southeast 266 306 8,900 -51 Level Washington Center
Sat 01:12:16 AM 39.2200 -78.0350 127° Southeast 253 291 8,800 -550 Descending Washington Center
Sat 01:13:17 AM 39.1714 -77.9664 132° Southeast 248 285 7,800 -1,000 Descending Washington Center
Sat 01:14:16 AM 39.1269 -77.8981 130° Southeast 248 285 6,800 -731 Descending Washington Center
Sat 01:16:00 AM 39.0991 -77.7727 117° Southeast  Level FlightAware Approximate
Sat 01:18:29 AM 38.9500 -77.6167 123° Southeast 219 252 4,000  Level Potomac TRACON
Sat 01:19:29 AM 38.9167 -77.5500 123° Southeast 199 229 3,000 -950 Descending Potomac TRACON
Sat 01:20:29 AM 38.9167 -77.5000 90° East 154 177 2,100 950 Descending Potomac TRACON
Sat 01:21:29 AM 38.9167 -77.4667 90° East 112 129 4,900 -750 Climbing Potomac TRACON
Sat 01:22:29 AM 38.9500 -77.4500 21° North 121 139 600 -4,300 Descending Potomac TRACON
Sat 01:23:00 AM 38.9474 -77.4599 123° Southeast  Level Estimated
Sat 01:24:00 AM 38.9474 -77.4599 123° Southeast  Level Estimated
Sat 01:31:00 AM 38.9474 -77.4599 123° Southeast  Level Estimated
Sat 01:32:00 AM 38.9474 -77.4599 123° Southeast  Level Estimated
Sat 01:33:00 AM 38.9474 -77.4599 123° Southeast  Level Estimated

Login

Don't have an account? Register now (free) for customized features, flight alerts, and more!